createdAt,value
2018-06-24T00:02:12.502Z,13.70
2018-06-24T00:04:42.394Z,13.73
2018-06-24T00:07:12.354Z,13.70
2018-06-24T00:09:42.302Z,13.69
2018-06-24T00:12:12.356Z,13.74
2018-06-24T00:14:42.273Z,13.74
2018-06-24T00:17:12.344Z,13.73
2018-06-24T00:19:42.184Z,13.73
2018-06-24T00:22:12.385Z,13.66
2018-06-24T00:24:42.593Z,13.69
2018-06-24T00:27:12.755Z,13.71
2018-06-24T00:29:42.614Z,13.67
2018-06-24T00:32:12.750Z,13.69
2018-06-24T00:34:42.747Z,13.72
2018-06-24T00:37:13.186Z,13.71
2018-06-24T00:39:43.247Z,13.69
2018-06-24T00:42:13.423Z,13.70
2018-06-24T00:44:43.292Z,13.68
2018-06-24T00:47:13.234Z,13.66
2018-06-24T00:49:43.386Z,13.69
2018-06-24T00:52:15.019Z,13.71
2018-06-24T00:54:45.492Z,13.72
2018-06-24T00:57:15.392Z,13.73
2018-06-24T00:59:55.696Z,13.74
2018-06-24T01:02:25.642Z,13.67
2018-06-24T01:04:55.517Z,13.66
2018-06-24T01:07:25.474Z,13.65
2018-06-24T01:09:55.373Z,13.66
2018-06-24T01:12:25.444Z,13.72
2018-06-24T01:14:55.246Z,13.71
2018-06-24T01:17:25.315Z,13.70
2018-06-24T01:19:57.427Z,13.68
2018-06-24T01:22:28.363Z,13.68
2018-06-24T01:24:58.600Z,13.61
2018-06-24T01:27:28.456Z,13.59
2018-06-24T01:29:58.386Z,13.64
2018-06-24T01:32:28.334Z,13.65
2018-06-24T01:34:58.309Z,13.68
2018-06-24T01:37:28.333Z,13.68
2018-06-24T01:39:58.205Z,13.64
2018-06-24T01:42:28.312Z,13.62
2018-06-24T01:44:58.616Z,13.64
2018-06-24T01:47:28.600Z,13.63
2018-06-24T01:49:58.681Z,13.57
2018-06-24T01:52:28.566Z,13.57
2018-06-24T01:54:58.417Z,13.57
2018-06-24T01:57:28.386Z,13.56
2018-06-24T01:59:58.314Z,13.59
2018-06-24T02:02:28.394Z,13.60
2018-06-24T02:04:58.248Z,13.60
2018-06-24T02:07:28.326Z,13.58
2018-06-24T02:09:58.186Z,13.57
2018-06-24T02:12:28.305Z,13.54
2018-06-24T02:14:58.177Z,13.54
2018-06-24T02:17:28.269Z,13.57
2018-06-24T02:19:58.343Z,13.49
2018-06-24T02:22:28.313Z,13.40
2018-06-24T02:24:58.305Z,13.40
2018-06-24T02:27:28.162Z,13.37
2018-06-24T02:29:58.379Z,13.40
2018-06-24T02:32:28.223Z,13.39
2018-06-24T02:34:58.300Z,13.40
2018-06-24T02:37:28.238Z,13.37
2018-06-24T02:39:58.309Z,13.38
2018-06-24T02:42:28.260Z,13.42
2018-06-24T02:44:58.274Z,13.40
2018-06-24T02:47:28.213Z,13.39
2018-06-24T02:49:58.297Z,13.36
2018-06-24T02:52:28.288Z,13.35
2018-06-24T02:54:58.383Z,13.39
2018-06-24T02:57:28.204Z,13.39
2018-06-24T02:59:58.391Z,13.37
2018-06-24T03:02:28.221Z,13.39
2018-06-24T03:04:58.445Z,13.38
2018-06-24T03:07:28.288Z,13.40
2018-06-24T03:09:58.284Z,13.43
2018-06-24T03:12:28.176Z,13.44
2018-06-24T03:14:58.024Z,13.45
2018-06-24T03:17:27.919Z,13.45
2018-06-24T03:19:57.838Z,13.51
2018-06-24T03:22:27.699Z,13.56
2018-06-24T03:24:58.043Z,13.59
2018-06-24T03:27:27.962Z,13.61
2018-06-24T03:29:57.909Z,13.63
2018-06-24T03:32:27.820Z,13.66
2018-06-24T03:34:57.701Z,13.47
2018-06-24T03:37:28.093Z,13.64
2018-06-24T03:39:58.047Z,13.64
2018-06-24T03:42:28.031Z,13.64
2018-06-24T03:44:57.870Z,13.63
2018-06-24T03:47:28.373Z,13.63
2018-06-24T03:49:59.263Z,13.71
2018-06-24T03:52:30.204Z,13.70
2018-06-24T03:55:01.090Z,13.77
2018-06-24T03:57:32.149Z,13.78
2018-06-24T04:00:03.015Z,13.75
2018-06-24T04:02:34.047Z,13.67
2018-06-24T04:05:05.071Z,13.73
2018-06-24T04:07:36.110Z,13.75
2018-06-24T04:10:07.009Z,13.80
2018-06-24T04:12:38.394Z,13.81
2018-06-24T04:15:09.314Z,13.77
2018-06-24T04:17:40.300Z,13.74
2018-06-24T04:20:11.157Z,13.71
2018-06-24T04:22:43.534Z,13.75
2018-06-24T04:25:13.388Z,13.75
2018-06-24T04:27:44.342Z,13.82
2018-06-24T04:30:15.617Z,13.87
2018-06-24T04:32:45.515Z,13.88
2018-06-24T04:35:17.246Z,13.93
2018-06-24T04:37:47.283Z,14.02
2018-06-24T04:40:18.154Z,14.03
2018-06-24T04:42:49.100Z,14.02
2018-06-24T04:45:18.966Z,14.00
2018-06-24T04:47:50.309Z,14.01
2018-06-24T04:50:21.199Z,14.02
2018-06-24T04:52:52.098Z,14.10
2018-06-24T04:55:23.032Z,14.15
2018-06-24T04:57:53.045Z,14.19
2018-06-24T05:00:23.979Z,14.22
2018-06-24T05:02:55.353Z,14.28
2018-06-24T05:05:26.200Z,14.27
2018-06-24T05:07:57.113Z,14.26
2018-06-24T05:10:28.020Z,14.31
2018-06-24T05:12:59.008Z,14.29
2018-06-24T05:15:30.318Z,14.27
2018-06-24T05:18:01.230Z,14.25
2018-06-24T05:20:32.015Z,14.31
2018-06-24T05:23:02.971Z,14.35
2018-06-24T05:25:34.251Z,14.36
2018-06-24T05:28:05.124Z,14.40
2018-06-24T05:30:35.912Z,14.37
2018-06-24T05:33:07.363Z,14.39
2018-06-24T05:35:38.267Z,14.48
2018-06-24T05:38:09.177Z,14.51
2018-06-24T05:40:40.041Z,14.56
2018-06-24T05:43:11.076Z,14.58
2018-06-24T05:45:42.106Z,14.57
2018-06-24T05:48:13.021Z,14.57
2018-06-24T05:50:44.004Z,14.59
2018-06-24T05:53:14.872Z,14.53
2018-06-24T05:55:46.273Z,14.66
2018-06-24T05:58:17.250Z,14.67
2018-06-24T06:00:48.058Z,14.74
2018-06-24T06:03:18.978Z,14.83
2018-06-24T06:05:50.224Z,14.88
2018-06-24T06:08:21.538Z,14.85
2018-06-24T06:10:52.193Z,14.88
2018-06-24T06:13:23.022Z,14.84
2018-06-24T06:15:54.257Z,14.88
2018-06-24T06:18:26.169Z,14.97
2018-06-24T06:20:56.402Z,14.95
2018-06-24T06:23:27.225Z,14.95
2018-06-24T06:25:58.646Z,15.08
2018-06-24T06:28:29.256Z,15.17
2018-06-24T06:31:01.213Z,15.20
2018-06-24T06:33:31.830Z,15.21
2018-06-24T06:36:03.295Z,15.14
2018-06-24T06:38:33.202Z,15.12
2018-06-24T06:41:03.100Z,15.11
2018-06-24T06:43:33.532Z,15.13
2018-06-24T06:46:04.738Z,15.20
2018-06-24T06:48:35.306Z,15.33
2018-06-24T06:51:05.218Z,15.46
2018-06-24T06:53:35.321Z,15.47
2018-06-24T06:56:05.992Z,15.58
2018-06-24T06:58:35.927Z,15.63
2018-06-24T07:01:06.427Z,15.66
2018-06-24T07:03:36.357Z,15.56
2018-06-24T07:06:06.183Z,15.56
2018-06-24T07:08:36.045Z,15.54
2018-06-24T07:11:06.405Z,15.62
2018-06-24T07:13:36.248Z,15.76
2018-06-24T07:16:07.105Z,15.86
2018-06-24T07:18:37.477Z,15.92
2018-06-24T07:21:07.548Z,15.89
2018-06-24T07:23:37.642Z,15.82
2018-06-24T07:26:08.035Z,15.72
2018-06-24T07:28:37.941Z,15.78
2018-06-24T07:31:07.866Z,15.79
2018-06-24T07:36:20.229Z,15.84
2018-06-24T07:38:50.051Z,15.83
2018-06-24T07:41:19.982Z,15.85
2018-06-24T07:43:49.957Z,15.91
2018-06-24T07:46:19.953Z,15.97
2018-06-24T07:48:49.930Z,16.04
2018-06-24T07:51:19.891Z,16.16
2018-06-24T07:53:50.168Z,16.19
2018-06-24T07:56:20.174Z,16.18
2018-06-24T07:58:50.219Z,16.18
2018-06-24T08:01:20.126Z,16.12
2018-06-24T08:03:50.018Z,16.03
2018-06-24T08:06:19.958Z,16.08
2018-06-24T08:08:49.959Z,16.12
2018-06-24T08:11:19.890Z,16.25
2018-06-24T08:14:03.306Z,16.41
2018-06-24T08:16:33.235Z,16.40
2018-06-24T08:19:03.945Z,16.46
2018-06-24T08:21:33.970Z,16.46
2018-06-24T08:24:03.973Z,16.48
2018-06-24T08:26:34.128Z,16.46
2018-06-24T08:29:04.197Z,16.49
2018-06-24T08:31:34.180Z,16.40
2018-06-24T08:34:04.804Z,16.57
2018-06-24T08:36:40.237Z,16.59
2018-06-24T08:39:11.492Z,16.57
2018-06-24T08:41:41.344Z,16.57
2018-06-24T08:44:11.387Z,16.60
2018-06-24T08:46:41.319Z,16.63
2018-06-24T08:49:11.248Z,16.60
2018-06-24T08:51:41.187Z,16.71
2018-06-24T08:54:11.109Z,16.75
2018-06-24T08:56:41.109Z,16.65
2018-06-24T08:59:11.094Z,16.55
2018-06-24T09:01:41.020Z,16.32
2018-06-24T09:04:10.934Z,16.13
2018-06-24T09:06:41.591Z,16.10
2018-06-24T09:09:11.917Z,16.05
2018-06-24T09:11:41.914Z,16.17
2018-06-24T09:14:12.400Z,16.33
2018-06-24T09:16:42.321Z,16.35
2018-06-24T09:19:12.160Z,16.52
2018-06-24T09:21:42.330Z,16.71
2018-06-24T09:24:12.752Z,16.74
2018-06-24T09:26:42.867Z,16.77
2018-06-24T09:29:12.952Z,16.89
2018-06-24T09:31:42.855Z,16.86
2018-06-24T09:34:12.926Z,16.94
2018-06-24T09:36:42.871Z,16.83
2018-06-24T09:39:14.099Z,16.78
2018-06-24T09:41:43.963Z,16.86
2018-06-24T09:44:13.879Z,16.58
2018-06-24T09:46:43.930Z,16.53
2018-06-24T09:49:13.907Z,16.38
2018-06-24T09:51:43.946Z,16.27
2018-06-24T09:54:13.833Z,16.38
2018-06-24T09:56:43.928Z,16.55
2018-06-24T09:59:13.921Z,16.56
2018-06-24T10:01:43.905Z,16.63
2018-06-24T10:04:14.020Z,16.72
2018-06-24T10:06:43.878Z,16.79
2018-06-24T10:09:15.253Z,16.86
2018-06-24T10:11:45.158Z,16.93
2018-06-24T10:14:15.333Z,17.03
2018-06-24T10:16:45.536Z,17.17
2018-06-24T10:19:15.785Z,17.25
2018-06-24T10:21:46.458Z,17.32
2018-06-24T10:24:16.347Z,17.39
2018-06-24T10:26:46.257Z,17.26
2018-06-24T10:29:16.237Z,17.39
2018-06-24T10:31:46.181Z,17.64
2018-06-24T10:34:16.148Z,17.72
2018-06-24T10:36:46.092Z,17.83
2018-06-24T10:39:16.067Z,17.88
2018-06-24T10:41:45.993Z,17.89
2018-06-24T10:44:15.952Z,17.85
2018-06-24T10:46:45.895Z,17.76
2018-06-24T10:49:15.820Z,17.78
2018-06-24T10:51:45.842Z,17.80
2018-06-24T10:54:15.878Z,17.72
2018-06-24T10:56:45.780Z,17.56
2018-06-24T10:59:15.913Z,17.31
2018-06-24T11:01:45.784Z,17.18
2018-06-24T11:04:15.964Z,17.14
2018-06-24T11:06:45.823Z,16.88
2018-06-24T11:09:15.907Z,16.94
2018-06-24T11:11:45.921Z,16.90
2018-06-24T11:14:15.879Z,16.87
2018-06-24T11:16:46.021Z,16.89
2018-06-24T11:19:16.073Z,16.99
2018-06-24T11:21:45.941Z,17.06
2018-06-24T11:24:16.099Z,17.17
2018-06-24T11:26:46.055Z,17.47
2018-06-24T11:29:16.061Z,17.59
2018-06-24T11:31:46.166Z,17.66
2018-06-24T11:34:16.058Z,17.77
2018-06-24T11:36:46.208Z,17.93
2018-06-24T11:39:16.139Z,18.05
2018-06-24T11:41:46.041Z,18.38
2018-06-24T11:44:15.959Z,18.79
2018-06-24T11:46:45.803Z,18.98
2018-06-24T11:49:16.594Z,19.28
2018-06-24T11:51:46.784Z,19.34
2018-06-24T11:54:16.879Z,19.23
2018-06-24T11:56:46.782Z,19.04
2018-06-24T11:59:17.370Z,18.93
2018-06-24T12:01:47.219Z,18.79
2018-06-24T12:04:17.155Z,18.73
2018-06-24T12:06:47.560Z,18.64
2018-06-24T12:09:17.747Z,18.70
2018-06-24T12:11:47.916Z,18.47
2018-06-24T12:14:17.825Z,18.24
2018-06-24T12:16:47.976Z,18.16
2018-06-24T12:19:17.862Z,18.28
2018-06-24T12:21:47.858Z,18.15
2018-06-24T12:24:18.130Z,18.04
2018-06-24T12:26:48.050Z,18.13
2018-06-24T12:29:17.871Z,18.27
2018-06-24T12:31:47.826Z,18.45
2018-06-24T12:34:17.781Z,18.51
2018-06-24T12:36:49.103Z,18.50
2018-06-24T12:39:19.765Z,18.99
2018-06-24T12:41:49.818Z,19.17
2018-06-24T12:44:19.860Z,18.92
2018-06-24T12:46:50.166Z,19.07
2018-06-24T12:49:20.048Z,19.44
2018-06-24T12:51:49.868Z,20.06
2018-06-24T12:54:19.916Z,20.22
2018-06-24T12:56:49.739Z,20.19
2018-06-24T12:59:19.937Z,20.21
2018-06-24T13:01:50.090Z,19.71
2018-06-24T13:04:20.305Z,19.91
2018-06-24T13:06:50.138Z,20.09
2018-06-24T13:09:20.278Z,20.08
2018-06-24T13:11:51.694Z,19.73
2018-06-24T13:14:21.719Z,19.34
2018-06-24T13:16:51.710Z,19.24
2018-06-24T13:19:21.764Z,19.42
2018-06-24T13:21:51.624Z,19.50
2018-06-24T13:24:22.320Z,20.00
2018-06-24T13:26:52.410Z,20.11
2018-06-24T13:29:22.466Z,19.71
2018-06-24T13:31:52.362Z,19.39
2018-06-24T13:34:22.765Z,19.17
2018-06-24T13:36:52.682Z,18.83
2018-06-24T13:39:22.830Z,18.84
2018-06-24T13:41:52.784Z,18.75
2018-06-24T13:44:22.786Z,18.75
2018-06-24T13:46:52.741Z,18.91
2018-06-24T13:49:22.633Z,19.33
2018-06-24T13:51:52.970Z,19.86
2018-06-24T13:54:23.441Z,20.30
2018-06-24T13:56:53.513Z,19.93
2018-06-24T13:59:23.982Z,19.54
2018-06-24T14:01:53.907Z,19.32
2018-06-24T14:04:23.831Z,19.00
2018-06-24T14:06:53.724Z,18.82
2018-06-24T14:09:23.632Z,18.90
2018-06-24T14:11:53.556Z,18.89
2018-06-24T14:14:23.693Z,18.95
2018-06-24T14:16:53.591Z,19.04
2018-06-24T14:19:23.549Z,19.02
2018-06-24T14:21:53.430Z,19.09
2018-06-24T14:24:23.395Z,19.04
2018-06-24T14:26:53.286Z,19.12
2018-06-24T14:29:23.255Z,19.04
2018-06-24T14:31:53.448Z,19.03
2018-06-24T14:34:23.376Z,19.19
2018-06-24T14:36:53.290Z,19.29
2018-06-24T14:39:23.313Z,19.24
2018-06-24T14:41:53.237Z,19.15
2018-06-24T14:44:23.126Z,18.99
2018-06-24T14:46:59.779Z,18.86
2018-06-24T14:49:29.690Z,18.89
2018-06-24T14:52:00.895Z,18.84
2018-06-24T14:54:30.792Z,18.72
2018-06-24T14:57:00.752Z,18.66
2018-06-24T14:59:30.635Z,18.76
2018-06-24T15:02:00.570Z,18.68
2018-06-24T15:04:30.557Z,18.60
2018-06-24T15:07:00.675Z,18.47
2018-06-24T15:09:30.982Z,18.51
2018-06-24T15:12:01.254Z,18.56
2018-06-24T15:14:31.185Z,18.55
2018-06-24T15:17:01.431Z,18.62
2018-06-24T15:19:31.291Z,18.48
2018-06-24T15:22:01.256Z,18.45
2018-06-24T15:24:31.231Z,18.54
2018-06-24T15:27:01.269Z,18.49
2018-06-24T15:29:31.612Z,18.43
2018-06-24T15:32:01.748Z,18.20
2018-06-24T15:34:31.595Z,18.18
2018-06-24T15:37:01.562Z,18.20
2018-06-24T15:39:31.507Z,18.27
2018-06-24T15:42:01.559Z,18.23
2018-06-24T15:44:31.527Z,18.30
2018-06-24T15:47:01.754Z,18.22
2018-06-24T15:49:31.723Z,18.21
2018-06-24T15:52:01.722Z,18.16
2018-06-24T15:54:31.637Z,18.06
2018-06-24T15:57:01.568Z,18.03
2018-06-24T15:59:31.509Z,18.14
2018-06-24T16:02:01.713Z,18.29
2018-06-24T16:04:32.064Z,18.26
2018-06-24T16:07:02.299Z,18.28
2018-06-24T16:09:32.220Z,18.31
2018-06-24T16:12:02.358Z,18.26
2018-06-24T16:14:32.256Z,18.11
2018-06-24T16:17:02.131Z,17.91
2018-06-24T16:19:32.060Z,17.86
2018-06-24T16:22:01.989Z,17.80
2018-06-24T16:24:31.999Z,17.76
2018-06-24T16:27:01.969Z,17.72
2018-06-24T16:29:31.918Z,17.72
2018-06-24T16:32:02.736Z,17.67
2018-06-24T16:34:32.679Z,17.64
2018-06-24T16:37:02.549Z,17.58
2018-06-24T16:39:32.562Z,17.52
2018-06-24T16:42:02.631Z,17.40
2018-06-24T16:44:32.661Z,17.40
2018-06-24T16:47:02.533Z,17.38
2018-06-24T16:49:32.570Z,17.30
2018-06-24T16:52:02.593Z,17.31
2018-06-24T16:54:32.537Z,17.19
2018-06-24T16:57:02.641Z,17.18
2018-06-24T16:59:32.526Z,17.17
2018-06-24T17:02:02.651Z,17.17
2018-06-24T17:04:32.601Z,17.18
2018-06-24T17:07:02.500Z,17.15
2018-06-24T17:09:32.712Z,17.13
2018-06-24T17:12:02.749Z,17.06
2018-06-24T17:14:33.723Z,17.03
2018-06-24T17:17:03.894Z,16.96
2018-06-24T17:19:34.026Z,17.04
2018-06-24T17:22:04.629Z,16.97
2018-06-24T17:24:34.586Z,16.99
2018-06-24T17:27:04.576Z,16.98
2018-06-24T17:29:34.529Z,16.92
2018-06-24T17:32:04.644Z,16.97
2018-06-24T17:34:34.555Z,17.02
2018-06-24T17:37:04.438Z,16.97
2018-06-24T17:39:34.445Z,16.86
2018-06-24T17:42:04.345Z,16.73
2018-06-24T17:44:34.657Z,16.63
2018-06-24T17:47:04.569Z,16.62
2018-06-24T17:49:34.466Z,16.59
2018-06-24T17:52:04.422Z,16.51
2018-06-24T17:54:34.828Z,16.39
2018-06-24T17:57:04.741Z,16.38
2018-06-24T17:59:34.880Z,16.39
2018-06-24T18:02:04.941Z,16.16
2018-06-24T18:04:35.182Z,16.29
2018-06-24T18:07:05.385Z,16.31
2018-06-24T18:09:35.327Z,16.25
2018-06-24T18:12:05.278Z,16.26
2018-06-24T18:14:35.243Z,16.19
2018-06-24T18:17:06.381Z,16.25
2018-06-24T18:19:37.406Z,16.25
2018-06-24T18:22:07.634Z,16.31
2018-06-24T18:24:38.115Z,16.28
2018-06-24T18:27:08.417Z,16.30
2018-06-24T18:29:38.710Z,16.23
2018-06-24T18:32:08.944Z,16.21
2018-06-24T18:34:39.576Z,16.27
2018-06-24T18:37:10.029Z,16.24
2018-06-24T18:39:39.937Z,16.26
2018-06-24T18:42:09.843Z,16.11
2018-06-24T18:44:40.285Z,15.99
2018-06-24T18:47:10.500Z,15.86
2018-06-24T18:49:40.450Z,15.88
2018-06-24T18:52:10.423Z,15.84
2018-06-24T18:54:40.363Z,15.90
2018-06-24T18:57:10.756Z,15.86
2018-06-24T18:59:41.138Z,15.84
2018-06-24T19:02:11.198Z,15.67
2018-06-24T19:04:41.347Z,15.69
2018-06-24T19:07:11.273Z,15.59
2018-06-24T19:09:41.400Z,15.53
2018-06-24T19:12:11.253Z,15.55
2018-06-24T19:14:41.157Z,15.55
2018-06-24T19:17:11.080Z,15.46
2018-06-24T19:19:41.051Z,15.41
2018-06-24T19:22:11.106Z,15.32
2018-06-24T19:24:41.017Z,15.30
2018-06-24T19:27:11.158Z,15.17
2018-06-24T19:29:41.029Z,15.16
2018-06-24T19:32:10.891Z,14.79
2018-06-24T19:34:41.092Z,14.94
2018-06-24T19:37:10.968Z,15.10
2018-06-24T19:39:41.128Z,15.19
2018-06-24T19:42:11.378Z,15.26
2018-06-24T19:44:41.714Z,15.34
2018-06-24T19:47:11.804Z,15.35
2018-06-24T19:49:42.000Z,15.38
2018-06-24T19:52:12.038Z,15.39
2018-06-24T19:54:42.985Z,15.40
2018-06-24T19:57:12.974Z,15.42
2018-06-24T19:59:43.105Z,15.41
2018-06-24T20:02:12.970Z,15.37
2018-06-24T20:04:43.045Z,15.38
2018-06-24T20:07:13.043Z,15.35
2018-06-24T20:09:43.021Z,15.29
2018-06-24T20:12:13.035Z,15.30
2018-06-24T20:14:43.041Z,15.27
2018-06-24T20:17:13.123Z,15.27
2018-06-24T20:19:43.071Z,15.26
2018-06-24T20:22:12.967Z,15.24
2018-06-24T20:24:43.059Z,15.23
2018-06-24T20:27:13.390Z,15.19
2018-06-24T20:29:43.926Z,15.15
2018-06-24T20:32:13.808Z,15.17
2018-06-24T20:34:44.028Z,15.12
2018-06-24T20:37:14.012Z,15.11
2018-06-24T20:39:44.086Z,15.11
2018-06-24T20:42:14.053Z,15.10
2018-06-24T20:44:44.001Z,15.10
2018-06-24T20:47:15.738Z,15.10
2018-06-24T20:49:46.958Z,15.10
2018-06-24T20:52:16.910Z,15.07
2018-06-24T20:54:46.839Z,15.05
2018-06-24T20:57:16.818Z,15.02
2018-06-24T20:59:46.792Z,15.02
2018-06-24T21:02:16.634Z,14.99
2018-06-24T21:04:46.497Z,14.99
2018-06-24T21:07:16.530Z,14.92
2018-06-24T21:09:46.364Z,14.90
2018-06-24T21:12:18.189Z,14.89
2018-06-24T21:14:48.034Z,14.87
2018-06-24T21:17:17.846Z,14.85
2018-06-24T21:19:47.710Z,14.85
2018-06-24T21:22:17.562Z,14.83
2018-06-24T21:24:47.531Z,14.78
2018-06-24T21:27:17.607Z,14.78
2018-06-24T21:29:48.015Z,14.76
2018-06-24T21:32:17.829Z,14.72
2018-06-24T21:34:47.758Z,14.63
2018-06-24T21:37:17.669Z,14.60
2018-06-24T21:42:52.603Z,14.67
2018-06-24T21:45:22.690Z,14.67
2018-06-24T21:47:52.735Z,14.66
2018-06-24T21:50:22.681Z,14.66
2018-06-24T21:52:52.648Z,14.41
2018-06-24T21:55:22.656Z,14.62
2018-06-24T21:57:53.295Z,14.62
2018-06-24T22:00:24.714Z,14.59
2018-06-24T22:02:54.928Z,14.61
2018-06-24T22:05:25.415Z,14.63
2018-06-24T22:07:55.458Z,14.60
2018-06-24T22:10:26.158Z,14.56
2018-06-24T22:12:56.059Z,14.50
2018-06-24T22:15:27.031Z,14.29
2018-06-24T22:17:58.085Z,14.23
2018-06-24T22:20:29.010Z,14.19
2018-06-24T22:23:00.053Z,14.16
2018-06-24T22:25:30.979Z,14.16
2018-06-24T22:28:01.916Z,14.16
2018-06-24T22:30:32.271Z,14.19
2018-06-24T22:33:02.955Z,14.23
2018-06-24T22:35:34.059Z,14.24
2018-06-24T22:38:04.917Z,14.28
2018-06-24T22:40:36.343Z,14.28
2018-06-24T22:43:07.481Z,14.29
2018-06-24T22:45:38.134Z,14.30
2018-06-24T22:48:08.989Z,14.30
2018-06-24T22:50:39.961Z,14.29
2018-06-24T22:53:09.878Z,14.28
2018-06-24T22:55:41.128Z,14.26
2018-06-24T22:58:11.916Z,14.24
2018-06-24T23:00:43.503Z,14.21
2018-06-24T23:03:14.062Z,14.21
2018-06-24T23:05:44.002Z,14.19
2018-06-24T23:08:14.983Z,14.16
2018-06-24T23:10:46.007Z,14.15
2018-06-24T23:13:16.970Z,14.10
2018-06-24T23:15:48.028Z,14.07
2018-06-24T23:18:18.931Z,14.01
2018-06-24T23:20:50.368Z,13.94
2018-06-24T23:23:21.112Z,13.92
2018-06-24T23:25:51.122Z,13.90
2018-06-24T23:28:21.964Z,13.85
2018-06-24T23:30:52.348Z,13.76
2018-06-24T23:33:22.878Z,13.75
2018-06-24T23:35:54.252Z,13.73
2018-06-24T23:38:24.984Z,13.72
2018-06-24T23:40:54.986Z,13.75
2018-06-24T23:43:25.882Z,13.73
2018-06-24T23:46:05.621Z,13.70
2018-06-24T23:48:35.572Z,13.72
2018-06-24T23:51:05.651Z,13.71
2018-06-24T23:53:36.178Z,13.70
2018-06-24T23:56:06.908Z,13.70
2018-06-24T23:58:36.811Z,13.63
